Time;durP1;ratioP1;P1;durP2;ratioP2;P2;SDS_P1;SDS_P2;PMS_P1;PMS_P2;Temp;Humidity;BMP_temperature;BMP_pressure;BME280_temperature;BME280_humidity;BME280_pressure;Samples;Min_cycle;Max_cycle;Signal;HPM_P1;HPM_P2
2022/10/10 00:01:39;;;;;;;12.40;5.28;;;;;;;5.53;80.03;101566.78;7394898;19;20011;-70
2022/10/10 00:04:08;;;;;;;14.10;6.18;;;;;;;5.50;79.99;101571.06;7394721;19;20497;-70
2022/10/10 00:06:37;;;;;;;8.45;4.20;;;;;;;5.48;80.03;101573.63;7394319;19;20372;-70
2022/10/10 00:09:06;;;;;;;9.07;5.00;;;;;;;5.45;80.08;101567.53;7394558;19;20018;-69
2022/10/10 00:11:34;;;;;;;9.50;4.32;;;;;;;5.44;79.93;101570.97;7393117;19;20022;-70
2022/10/10 00:14:03;;;;;;;11.15;5.10;;;;;;;5.39;80.06;101566.56;7392669;19;20502;-70
2022/10/10 00:16:31;;;;;;;8.15;4.18;;;;;;;5.37;80.19;101563.09;7394702;19;20018;-70
2022/10/10 00:19:03;;;;;;;10.02;5.00;;;;;;;5.34;80.11;101557.84;7394781;19;20018;-69
2022/10/10 00:21:31;;;;;;;12.93;6.13;;;;;;;5.30;80.35;101563.88;7394221;19;20039;-69
2022/10/10 00:24:00;;;;;;;9.95;4.82;;;;;;;5.26;80.25;101555.97;7394664;19;20027;-69
2022/10/10 00:26:28;;;;;;;9.68;4.78;;;;;;;5.22;80.38;101555.09;7394569;19;20023;-69
2022/10/10 00:28:57;;;;;;;8.80;3.75;;;;;;;5.17;80.38;101554.16;7394067;19;20035;-69
2022/10/10 00:31:26;;;;;;;9.15;4.30;;;;;;;5.12;80.64;101548.88;7392447;19;20026;-69
2022/10/10 00:33:54;;;;;;;6.85;3.88;;;;;;;5.10;80.52;101554.91;7392021;19;20410;-69
2022/10/10 00:36:25;;;;;;;8.85;4.00;;;;;;;5.06;80.71;101554.00;7393861;19;20031;-69
2022/10/10 00:38:54;;;;;;;11.65;3.63;;;;;;;5.00;80.77;101544.38;7391894;19;20018;-69
2022/10/10 00:41:22;;;;;;;5.03;3.58;;;;;;;5.00;80.72;101544.38;7393417;19;20027;-69
2022/10/10 00:44:07;;;;;;;8.98;3.95;;;;;;;4.95;80.84;101540.84;7396449;19;20022;-69
2022/10/10 00:46:35;;;;;;;;;;;;;;;4.92;80.87;101540.81;7402138;19;20035;-70
2022/10/10 00:49:06;;;;;;;6.88;3.63;;;;;;;4.89;80.45;101540.75;7401461;19;19922;-69
2022/10/10 00:51:38;;;;;;;6.32;3.85;;;;;;;4.87;80.68;101532.06;7401056;19;20513;-69
2022/10/10 00:54:11;;;;;;;5.90;3.70;;;;;;;4.84;80.75;101529.41;7400907;19;20602;-69
2022/10/10 00:56:45;;;;;;;7.00;3.72;;;;;;;4.81;80.87;101521.56;7400709;19;20014;-69
2022/10/10 00:59:14;;;;;;;9.02;3.90;;;;;;;4.78;81.05;101512.00;7401676;19;20022;-69
2022/10/10 01:01:43;;;;;;;4.68;3.28;;;;;;;4.76;81.08;101520.63;7400026;19;20018;-69
2022/10/10 01:04:31;;;;;;;4.32;3.38;;;;;;;4.73;81.03;101511.91;7400571;19;20021;-69
2022/10/10 01:07:05;;;;;;;7.18;3.38;;;;;;;4.71;81.25;101521.44;7398221;19;20019;-69
2022/10/10 01:09:35;;;;;;;7.13;3.42;;;;;;;4.71;81.40;101515.34;7400434;19;20074;-69
2022/10/10 01:12:10;;;;;;;6.32;3.28;;;;;;;4.71;81.20;101515.34;7400291;19;20418;-68
2022/10/10 01:14:47;;;;;;;6.82;3.53;;;;;;;4.70;81.40;101519.69;7401091;19;20421;-68
2022/10/10 01:17:22;;;;;;;5.07;3.20;;;;;;;4.70;81.49;101516.19;7398226;19;20022;-67
2022/10/10 01:20:25;;;;;;;10.57;3.60;;;;;;;4.67;81.51;101511.84;7400078;19;20031;-67
2022/10/10 01:23:21;;;;;;;7.60;3.47;;;;;;;4.66;81.58;101512.72;7398065;19;20017;-68
2022/10/10 01:26:02;;;;;;;8.15;3.60;;;;;;;4.64;81.58;101509.19;7400642;19;20014;-68
2022/10/10 01:28:45;;;;;;;7.32;3.40;;;;;;;4.62;81.56;101502.22;7397608;19;20025;-68
2022/10/10 01:31:21;;;;;;;6.93;3.22;;;;;;;4.62;81.60;101502.22;7399690;19;20018;-68
2022/10/10 01:34:03;;;;;;;5.18;3.30;;;;;;;4.61;81.74;101503.06;7400377;19;20019;-68
2022/10/10 01:36:40;;;;;;;7.40;3.85;;;;;;;4.59;81.75;101490.06;7397671;19;20086;-69
2022/10/10 01:39:16;;;;;;;8.10;3.65;;;;;;;4.57;81.93;101495.25;7399477;19;20018;-68
2022/10/10 01:41:51;;;;;;;7.93;3.90;;;;;;;4.57;81.73;101494.34;7399685;19;20032;-68
2022/10/10 01:44:29;;;;;;;6.18;4.00;;;;;;;4.55;81.80;101496.06;7399911;19;20018;-68
2022/10/10 01:46:57;;;;;;;6.90;3.25;;;;;;;4.53;81.98;101490.84;7399417;19;20028;-68
2022/10/10 01:49:39;;;;;;;7.38;3.85;;;;;;;4.53;82.00;101487.38;7399416;19;20035;-68
2022/10/10 01:52:19;;;;;;;7.30;3.63;;;;;;;4.51;82.11;101486.47;7396749;19;20529;-68
2022/10/10 01:54:54;;;;;;;5.07;3.38;;;;;;;4.50;82.21;101487.31;7399314;19;20037;-68
2022/10/10 01:57:31;;;;;;;7.22;3.20;;;;;;;4.50;82.43;101482.09;7398019;19;20427;-68
2022/10/10 02:00:08;;;;;;;6.30;3.40;;;;;;;4.46;82.51;101475.13;7398675;19;20502;-68
2022/10/10 02:02:48;;;;;;;8.15;3.67;;;;;;;4.44;82.56;101482.03;7397696;19;20015;-69
2022/10/10 02:05:22;;;;;;;7.30;3.30;;;;;;;4.43;82.77;101469.91;7399281;19;20031;-69
2022/10/10 02:07:55;;;;;;;6.68;3.90;;;;;;;4.40;82.71;101474.19;7397211;19;20484;-69
2022/10/10 02:10:26;;;;;;;7.78;3.78;;;;;;;4.37;82.89;101466.34;7398976;19;20026;-68
2022/10/10 02:12:57;;;;;;;10.25;4.07;;;;;;;4.37;82.96;101462.88;7396890;19;20506;-69
2022/10/10 02:15:33;;;;;;;7.43;4.10;;;;;;;4.35;83.25;101468.03;7399605;19;20367;-69
2022/10/10 02:18:04;;;;;;;6.57;3.80;;;;;;;4.33;83.21;101455.88;7396845;19;20015;-69
2022/10/10 02:20:34;;;;;;;10.68;4.03;;;;;;;4.33;83.34;101451.53;7398471;19;20022;-69
2022/10/10 02:23:03;;;;;;;9.65;4.30;;;;;;;4.32;83.45;101455.03;7397029;19;20035;-69
2022/10/10 02:25:38;;;;;;;8.05;4.90;;;;;;;4.32;83.53;101449.81;7396067;19;20039;-68
2022/10/10 02:28:14;;;;;;;9.52;5.50;;;;;;;4.31;83.65;101439.38;7396911;19;20106;-69
2022/10/10 02:30:48;;;;;;;10.02;5.13;;;;;;;4.30;83.66;101441.13;7397466;19;20494;-68
2022/10/10 02:33:19;;;;;;;;;;;;;;;4.31;83.80;101441.97;7399099;19;20022;-68
2022/10/10 02:35:50;;;;;;;8.50;4.63;;;;;;;4.29;83.68;101439.38;7395454;19;19918;-68
2022/10/10 02:38:20;;;;;;;9.70;4.70;;;;;;;4.29;83.53;101438.50;7395979;19;20025;-68
2022/10/10 02:40:51;;;;;;;9.73;4.68;;;;;;;4.29;83.56;101438.50;7398095;19;20018;-68
2022/10/10 02:43:20;;;;;;;6.53;4.25;;;;;;;4.27;83.94;101428.06;7395949;19;20540;-68
2022/10/10 02:45:52;;;;;;;8.30;4.30;;;;;;;4.26;83.85;101423.75;7397475;19;20422;-68
2022/10/10 02:48:20;;;;;;;9.05;4.95;;;;;;;4.26;84.38;101423.75;7396121;19;20023;-68
2022/10/10 02:50:49;;;;;;;9.25;4.20;;;;;;;4.25;83.85;101424.59;7396876;19;20422;-68
2022/10/10 02:53:17;;;;;;;12.70;4.95;;;;;;;4.23;84.47;101419.38;7395121;19;20485;-68
2022/10/10 02:55:45;;;;;;;6.50;3.80;;;;;;;4.22;84.58;101409.84;7397249;19;20031;-68
2022/10/10 02:58:14;;;;;;;8.07;3.97;;;;;;;4.22;84.56;101409.84;7394857;19;20011;-68
2022/10/10 03:00:42;;;;;;;8.77;4.22;;;;;;;4.21;84.53;101397.69;7396879;19;20363;-68
2022/10/10 03:03:14;;;;;;;9.10;3.90;;;;;;;4.22;84.76;101401.16;7395831;19;20031;-68
2022/10/10 03:05:42;;;;;;;5.50;4.25;;;;;;;4.21;84.78;101389.03;7395707;19;20022;-68
2022/10/10 03:08:11;;;;;;;8.15;4.60;;;;;;;4.22;84.74;101388.16;7395334;19;20022;-68
2022/10/10 03:10:39;;;;;;;6.85;3.67;;;;;;;4.21;85.00;101392.50;7396411;19;20105;-68
2022/10/10 03:13:08;;;;;;;8.68;4.03;;;;;;;4.22;84.94;101383.88;7396632;19;20050;-68
2022/10/10 03:15:36;;;;;;;11.25;4.32;;;;;;;4.22;85.07;101390.75;7396617;19;20031;-68
2022/10/10 03:18:05;;;;;;;8.13;4.15;;;;;;;4.23;85.14;101379.53;7394818;19;20422;-68
2022/10/10 03:20:36;;;;;;;9.32;4.55;;;;;;;4.23;85.18;101383.03;7396416;19;20028;-68
2022/10/10 03:23:05;;;;;;;10.63;4.50;;;;;;;4.21;85.25;101373.47;7395859;19;20018;-68
2022/10/10 03:25:33;;;;;;;10.30;4.20;;;;;;;4.23;85.42;101379.53;7395725;19;20419;-68
2022/10/10 03:28:02;;;;;;;10.75;4.50;;;;;;;4.23;85.40;101370.03;7394914;19;20022;-67
2022/10/10 03:30:30;;;;;;;7.18;3.88;;;;;;;4.22;85.74;101370.88;7395533;19;20447;-68
2022/10/10 03:32:59;;;;;;;7.43;4.43;;;;;;;4.21;85.71;101363.94;7394112;19;20035;-68
2022/10/10 03:35:28;;;;;;;10.55;4.10;;;;;;;4.21;85.84;101368.25;7395446;19;20090;-68
2022/10/10 03:38:01;;;;;;;7.60;4.22;;;;;;;4.20;85.93;101359.59;7394317;19;20074;-68
2022/10/10 03:40:30;;;;;;;8.48;4.35;;;;;;;4.19;85.88;101354.38;7395187;19;20505;-68
2022/10/10 03:42:59;;;;;;;8.38;4.00;;;;;;;4.18;85.80;101352.63;7394225;19;20082;-68
2022/10/10 03:45:27;;;;;;;7.57;4.05;;;;;;;4.16;85.85;101354.34;7394927;19;20514;-68
2022/10/10 03:47:56;;;;;;;6.63;4.90;;;;;;;4.14;85.88;101341.31;7393721;19;20082;-67
2022/10/10 03:50:24;;;;;;;7.57;4.20;;;;;;;4.13;86.04;101338.69;7395375;19;20089;-67
2022/10/10 03:52:53;;;;;;;5.18;4.10;;;;;;;4.13;85.97;101330.91;7394654;19;20422;-67
2022/10/10 03:55:24;;;;;;;6.43;4.38;;;;;;;4.11;86.04;101327.41;7394725;19;20070;-67
2022/10/10 03:57:52;;;;;;;8.98;4.75;;;;;;;4.10;86.38;101330.88;7393396;19;20530;-67
2022/10/10 04:00:21;;;;;;;7.13;4.28;;;;;;;4.10;86.25;101325.69;7394435;19;20501;-67
2022/10/10 04:02:50;;;;;;;7.50;4.18;;;;;;;4.10;86.36;101330.88;7393811;19;20088;-67
2022/10/10 04:05:18;;;;;;;5.55;4.18;;;;;;;4.08;86.40;101316.13;7394582;19;20022;-68
2022/10/10 04:07:47;;;;;;;10.93;4.18;;;;;;;4.08;86.36;101313.53;7393509;19;20023;-67
2022/10/10 04:10:15;;;;;;;8.80;4.65;;;;;;;4.07;86.45;101306.59;7394071;19;20107;-68
2022/10/10 04:12:46;;;;;;;6.60;3.85;;;;;;;4.05;86.37;101295.31;7394448;19;20036;-68
2022/10/10 04:15:15;;;;;;;10.43;6.00;;;;;;;4.04;86.61;101297.88;7392492;19;20031;-68
2022/10/10 04:17:43;;;;;;;10.13;5.32;;;;;;;4.04;86.61;101298.78;7393855;19;20015;-67
2022/10/10 04:20:11;;;;;;;12.63;4.68;;;;;;;4.03;86.68;101294.44;7401322;19;20091;-68
2022/10/10 04:22:41;;;;;;;7.88;4.78;;;;;;;4.01;86.73;101290.94;7400920;19;20082;-67
2022/10/10 04:25:10;;;;;;;8.13;4.70;;;;;;;4.01;86.74;101283.13;7401895;19;20022;-67
2022/10/10 04:27:39;;;;;;;7.18;4.47;;;;;;;4.01;86.70;101290.06;7400180;19;20018;-68
2022/10/10 04:30:12;;;;;;;10.45;4.47;;;;;;;3.99;86.77;101279.63;7401409;19;20015;-67
2022/10/10 04:32:40;;;;;;;8.90;4.80;;;;;;;4.00;86.85;101283.97;7400964;19;20014;-68
2022/10/10 04:35:10;;;;;;;8.77;4.97;;;;;;;3.99;87.16;101278.78;7398097;19;20014;-68
2022/10/10 04:37:38;;;;;;;11.50;4.47;;;;;;;4.01;87.11;101275.34;7399615;19;20019;-66
2022/10/10 04:40:08;;;;;;;8.57;4.65;;;;;;;4.01;87.05;101274.50;7401779;19;20047;-66
2022/10/10 04:42:36;;;;;;;42.72;21.77;;;;;;;4.01;87.02;101272.75;7401921;19;20026;-69
2022/10/10 04:45:06;;;;;;;11.48;7.13;;;;;;;4.01;87.10;101271.91;7401818;19;20552;-68
2022/10/10 04:47:37;;;;;;;9.65;4.95;;;;;;;4.02;87.49;101274.50;7399918;19;20014;-69
2022/10/10 04:50:06;;;;;;;9.05;5.10;;;;;;;4.01;87.37;101267.56;7401611;19;20078;-71
2022/10/10 04:52:34;;;;;;;9.60;5.45;;;;;;;4.01;87.27;101267.56;7398010;19;20098;-69
2022/10/10 04:55:03;;;;;;;7.10;5.35;;;;;;;4.02;87.42;101258.03;7400609;19;20011;-69
2022/10/10 04:57:31;;;;;;;11.15;5.63;;;;;;;4.00;87.20;101258.03;7397758;19;20019;-69
2022/10/10 05:00:00;;;;;;;10.85;5.88;;;;;;;3.99;87.25;101258.00;7399452;19;20406;-70
2022/10/10 05:02:28;;;;;;;9.40;5.65;;;;;;;3.97;87.38;101254.50;7399632;19;20011;-70
2022/10/10 05:04:59;;;;;;;11.75;6.55;;;;;;;3.97;87.36;101249.31;7399900;19;20014;-69
2022/10/10 05:07:28;;;;;;;8.93;6.63;;;;;;;3.94;87.32;101242.34;7398578;19;20026;-71
2022/10/10 05:09:56;;;;;;;11.25;6.40;;;;;;;3.95;87.54;101244.09;7399429;19;20040;-69
2022/10/10 05:12:25;;;;;;;10.05;6.13;;;;;;;3.94;87.30;101244.09;7398951;19;20506;-69
2022/10/10 05:14:53;;;;;;;9.95;5.97;;;;;;;3.93;87.56;101243.22;7399137;19;20090;-69
2022/10/10 05:17:22;;;;;;;10.93;6.57;;;;;;;3.94;87.58;101250.16;7397823;19;20354;-68
2022/10/10 05:19:51;;;;;;;11.07;6.47;;;;;;;3.91;87.29;101240.59;7398543;19;20501;-69
2022/10/10 05:22:22;;;;;;;8.25;5.70;;;;;;;3.91;87.58;101243.19;7398578;19;20011;-68
2022/10/10 05:24:50;;;;;;;11.88;6.93;;;;;;;3.91;87.40;101245.78;7395427;19;20035;-69
2022/10/10 05:27:19;;;;;;;12.60;7.47;;;;;;;3.92;87.43;101237.16;7398320;19;20518;-70
2022/10/10 05:29:47;;;;;;;14.60;9.10;;;;;;;3.91;87.43;101235.41;7398851;19;20077;-69
2022/10/10 05:32:16;;;;;;;16.83;8.32;;;;;;;3.92;87.37;101241.47;7399670;19;20081;-70
2022/10/10 05:34:44;;;;;;;12.13;8.45;;;;;;;3.92;87.51;101236.28;7398898;19;20070;-68
2022/10/10 05:37:12;;;;;;;11.88;7.30;;;;;;;3.92;87.50;101238.88;7398320;19;20022;-69
2022/10/10 05:39:43;;;;;;;14.10;8.07;;;;;;;3.93;87.43;101238.03;7398809;19;20022;-69
2022/10/10 05:42:13;;;;;;;9.88;7.53;;;;;;;3.94;87.45;101233.72;7398668;19;20506;-69
2022/10/10 05:44:41;;;;;;;12.60;8.48;;;;;;;3.95;87.65;101231.13;7397075;19;20078;-69
2022/10/10 05:47:10;;;;;;;13.02;8.20;;;;;;;3.97;87.53;101228.53;7398727;19;20035;-68
2022/10/10 05:49:38;;;;;;;10.18;7.38;;;;;;;3.94;87.50;101223.31;7398827;19;20019;-69
2022/10/10 05:52:07;;;;;;;12.40;8.15;;;;;;;3.99;87.59;101227.72;7396798;19;20078;-69
2022/10/10 05:54:35;;;;;;;18.13;8.30;;;;;;;4.02;87.62;101230.38;7398257;19;20417;-69
2022/10/10 05:57:07;;;;;;;23.08;9.23;;;;;;;4.03;87.70;101223.44;7396321;19;20086;-69
2022/10/10 05:59:35;;;;;;;21.38;9.10;;;;;;;4.06;87.44;101223.50;7398357;19;20027;-69
2022/10/10 06:02:03;;;;;;;27.10;10.23;;;;;;;4.06;87.53;101218.28;7398545;19;20074;-69
2022/10/10 06:04:32;;;;;;;24.60;10.60;;;;;;;4.10;87.49;101214.03;7396505;19;20074;-69
2022/10/10 06:07:00;;;;;;;17.65;9.38;;;;;;;4.14;87.79;101220.97;7397285;19;20018;-69
2022/10/10 06:09:36;;;;;;;15.65;8.02;;;;;;;4.18;87.71;101207.19;7398373;19;20073;-70
2022/10/10 06:12:07;;;;;;;13.07;7.28;;;;;;;4.20;87.88;101216.72;7397493;19;20513;-70
2022/10/10 06:14:35;;;;;;;18.60;8.70;;;;;;;4.27;87.67;101209.00;7397930;19;20385;-70
2022/10/10 06:17:04;;;;;;;15.38;8.40;;;;;;;4.30;88.00;101215.13;7396914;19;20022;-70
2022/10/10 06:19:32;;;;;;;11.48;8.70;;;;;;;4.35;87.83;101216.03;7397828;19;20070;-70
2022/10/10 06:22:01;;;;;;;13.40;8.98;;;;;;;4.38;87.91;101210.88;7395683;19;20018;-70
2022/10/10 06:24:29;;;;;;;14.25;8.75;;;;;;;4.42;87.77;101218.72;7395246;19;20083;-69
2022/10/10 06:26:58;;;;;;;14.85;8.13;;;;;;;4.47;87.89;101204.03;7396325;19;20073;-68
2022/10/10 06:29:29;;;;;;;11.63;7.03;;;;;;;4.51;87.82;101208.41;7397073;19;20094;-69
2022/10/10 06:31:57;;;;;;;14.73;7.95;;;;;;;4.56;87.96;101196.34;7397504;19;20082;-69
2022/10/10 06:34:26;;;;;;;15.23;8.98;;;;;;;4.59;87.87;101190.28;7395338;19;20053;-69
2022/10/10 06:36:54;;;;;;;13.13;9.25;;;;;;;4.67;88.04;101193.84;7397275;19;20022;-69
2022/10/10 06:39:23;;;;;;;13.70;8.23;;;;;;;4.73;88.02;101191.31;7397035;19;20018;-69
2022/10/10 06:41:51;;;;;;;16.63;8.98;;;;;;;4.81;88.09;101189.66;7394250;19;20035;-69
2022/10/10 06:44:20;;;;;;;10.48;7.55;;;;;;;4.92;88.07;101197.56;7395357;19;20094;-67
2022/10/10 06:46:51;;;;;;;15.20;8.13;;;;;;;5.04;88.13;101199.38;7396320;19;20031;-70
2022/10/10 06:49:19;;;;;;;20.92;9.65;;;;;;;5.15;88.11;101199.47;7397363;19;20086;-70
2022/10/10 06:51:48;;;;;;;12.80;7.90;;;;;;;5.27;88.14;101202.19;7396904;19;20083;-69
2022/10/10 06:54:17;;;;;;;9.98;7.38;;;;;;;5.37;88.14;101204.00;7396928;19;20074;-69
2022/10/10 06:56:45;;;;;;;15.73;8.07;;;;;;;5.47;88.03;101196.22;7396280;19;20018;-69
2022/10/10 06:59:14;;;;;;;16.10;7.45;;;;;;;5.55;87.91;101197.16;7395448;19;20012;-69
2022/10/10 07:01:42;;;;;;;12.25;7.25;;;;;;;5.66;87.84;101199.81;7394602;19;20420;-69
2022/10/10 07:04:14;;;;;;;11.23;7.60;;;;;;;5.73;87.74;101200.75;7394415;19;20101;-69
2022/10/10 07:06:43;;;;;;;11.55;9.00;;;;;;;5.82;87.53;101200.78;7395090;19;20023;-68
2022/10/10 07:09:11;;;;;;;11.23;8.20;;;;;;;5.90;87.56;101196.47;7395446;19;20027;-70
2022/10/10 07:11:44;;;;;;;14.25;8.60;;;;;;;5.94;87.35;101193.03;7395810;19;20006;-70
2022/10/10 07:14:12;;;;;;;10.20;6.72;;;;;;;6.01;87.40;101187.00;7396047;19;20033;-70
2022/10/10 07:16:41;;;;;;;8.60;7.25;;;;;;;6.06;87.20;101191.38;7395147;19;20086;-70
2022/10/10 07:19:10;;;;;;;8.82;6.80;;;;;;;6.11;87.21;101187.06;7393423;19;20584;-71
2022/10/10 07:21:41;;;;;;;10.43;7.28;;;;;;;6.16;87.24;101191.41;7395815;19;20014;-69
2022/10/10 07:24:10;;;;;;;11.45;7.05;;;;;;;6.19;86.85;101191.44;7394286;19;20018;-69
2022/10/10 07:26:38;;;;;;;11.73;7.35;;;;;;;6.27;86.92;101191.47;7395424;19;20472;-69
2022/10/10 07:29:07;;;;;;;10.52;6.65;;;;;;;6.33;86.83;101185.38;7395928;19;20039;-70
2022/10/10 07:31:42;;;;;;;10.05;6.55;;;;;;;6.39;86.86;101189.75;7394032;19;20018;-70
2022/10/10 07:34:11;;;;;;;12.55;6.50;;;;;;;6.45;86.69;101185.41;7393818;19;20035;-69
2022/10/10 07:36:42;;;;;;;10.85;6.40;;;;;;;6.52;86.55;101186.28;7393545;19;20022;-69
2022/10/10 07:39:10;;;;;;;9.07;6.50;;;;;;;6.58;86.44;101191.53;7394368;19;20411;-70
2022/10/10 07:41:39;;;;;;;10.88;5.95;;;;;;;6.64;86.38;101194.16;7395280;19;20086;-70
2022/10/10 07:44:08;;;;;;;7.60;5.70;;;;;;;6.72;86.37;101201.13;7394284;19;20489;-71
2022/10/10 07:46:36;;;;;;;15.27;6.05;;;;;;;6.77;86.22;101194.16;7395209;19;20014;-69
2022/10/10 07:49:05;;;;;;;8.88;5.88;;;;;;;6.84;85.96;101193.31;7394532;19;20041;-69
2022/10/10 07:51:34;;;;;;;8.35;5.35;;;;;;;6.93;86.05;101201.13;7395016;19;20055;-69
2022/10/10 07:54:05;;;;;;;8.77;5.68;;;;;;;7.01;86.09;101196.81;7393114;19;20014;-70
2022/10/10 07:56:34;;;;;;;11.25;5.35;;;;;;;7.11;85.75;101192.44;7393124;19;20018;-71
2022/10/10 07:59:02;;;;;;;30.02;14.55;;;;;;;7.22;85.49;101191.59;7392753;19;20395;-70
2022/10/10 08:01:31;;;;;;;17.10;8.35;;;;;;;7.32;85.59;101188.09;7392775;19;20509;-70
2022/10/10 08:03:59;;;;;;;10.88;5.28;;;;;;;7.44;85.38;101190.69;7394170;19;20082;-70
2022/10/10 08:06:28;;;;;;;11.05;6.20;;;;;;;7.57;84.98;101188.03;7394450;19;20019;-70
2022/10/10 08:08:56;;;;;;;8.23;4.53;;;;;;;7.67;84.74;101179.31;7394909;19;20018;-70
2022/10/10 08:11:27;;;;;;;5.82;3.65;;;;;;;7.81;84.16;101180.16;7394597;19;20432;-69
2022/10/10 08:13:56;;;;;;;7.80;3.30;;;;;;;7.94;83.63;101174.88;7393649;19;20078;-70
2022/10/10 08:16:24;;;;;;;6.90;3.03;;;;;;;8.09;83.21;101169.59;7393866;19;20082;-70
2022/10/10 08:18:53;;;;;;;4.70;2.90;;;;;;;8.24;82.76;101162.53;7392223;19;20019;-69
2022/10/10 08:21:21;;;;;;;5.38;3.00;;;;;;;8.40;82.01;101173.78;7393556;19;20090;-69
2022/10/10 08:23:50;;;;;;;7.55;3.30;;;;;;;8.54;81.50;101174.59;7391615;19;20022;-69
2022/10/10 08:26:19;;;;;;;7.72;3.40;;;;;;;8.69;81.05;101170.16;7393376;19;20090;-69
2022/10/10 08:28:50;;;;;;;5.78;3.35;;;;;;;8.82;80.50;101174.41;7391898;19;20019;-69
2022/10/10 08:31:22;;;;;;;4.07;2.85;;;;;;;8.96;79.59;101167.31;7395351;19;20014;-70
2022/10/10 08:33:52;;;;;;;5.93;2.70;;;;;;;9.10;78.66;101171.56;7393175;19;20021;-69
2022/10/10 08:36:23;;;;;;;3.53;2.58;;;;;;;9.25;78.06;101171.44;7393106;19;20078;-69
2022/10/10 08:38:54;;;;;;;4.85;3.33;;;;;;;9.38;77.56;101159.06;7391545;19;20470;-70
2022/10/10 08:41:34;;;;;;;5.20;2.83;;;;;;;9.54;75.37;101165.03;7393692;19;20022;-70
2022/10/10 08:44:09;;;;;;;3.30;3.00;;;;;;;9.71;74.84;101163.97;7393159;19;20440;-70
2022/10/10 08:46:41;;;;;;;4.57;2.80;;;;;;;9.86;75.32;101155.94;7392752;19;20083;-70
2022/10/10 08:49:20;;;;;;;3.33;2.25;;;;;;;10.02;74.41;101164.47;7393784;19;20086;-69
2022/10/10 08:52:00;;;;;;;18.20;3.58;;;;;;;10.16;73.05;101155.56;7391324;19;20022;-68
2022/10/10 08:54:32;;;;;;;3.72;2.40;;;;;;;10.30;73.05;101160.59;7395698;19;20021;-69
2022/10/10 08:57:05;;;;;;;5.80;2.67;;;;;;;10.41;72.55;101162.25;7392987;19;20014;-69
2022/10/10 08:59:47;;;;;;;7.43;3.20;;;;;;;10.54;72.33;101160.31;7390060;19;20477;-69
2022/10/10 09:02:29;;;;;;;4.78;2.33;;;;;;;10.67;71.34;101157.50;7390970;19;20058;-69
2022/10/10 09:04:58;;;;;;;5.63;2.50;;;;;;;10.78;71.45;101159.94;7397005;19;20079;-69
2022/10/10 09:07:40;;;;;;;6.00;2.35;;;;;;;10.87;69.14;101157.19;7397133;19;20018;-68
2022/10/10 09:10:20;;;;;;;6.78;2.38;;;;;;;10.96;68.94;101151.75;7399978;19;20019;-70
2022/10/10 09:13:01;;;;;;;4.35;2.50;;;;;;;11.03;69.12;101149.91;7399982;19;20032;-70
2022/10/10 09:15:37;;;;;;;7.88;2.83;;;;;;;11.09;69.27;101155.03;7397835;19;20029;-70
2022/10/10 09:18:17;;;;;;;6.20;2.50;;;;;;;11.14;69.44;101142.69;7397118;19;20419;-70
2022/10/10 09:20:54;;;;;;;7.20;3.10;;;;;;;11.19;68.94;101140.84;7400541;19;20041;-69
2022/10/10 09:23:26;;;;;;;6.13;2.75;;;;;;;11.25;69.29;101142.50;7399282;19;20074;-70
2022/10/10 09:26:01;;;;;;;6.85;2.55;;;;;;;11.30;69.17;101142.41;7399193;19;20066;-67
2022/10/10 09:28:40;;;;;;;7.55;2.80;;;;;;;11.32;67.98;101136.25;7397834;19;20023;-67
2022/10/10 09:31:19;;;;;;;5.03;2.38;;;;;;;11.39;68.46;101139.63;7400236;19;20018;-68
2022/10/10 09:33:55;;;;;;;6.32;2.63;;;;;;;11.43;68.72;101133.41;7400837;19;20044;-67
2022/10/10 09:36:31;;;;;;;11.32;5.10;;;;;;;11.47;68.67;101131.59;7399710;19;20399;-68
2022/10/10 09:39:04;;;;;;;18.38;7.28;;;;;;;11.51;68.49;101136.78;7400601;19;20493;-66
2022/10/10 09:41:37;;;;;;;15.55;7.55;;;;;;;11.56;68.60;101127.03;7396222;19;20074;-68
2022/10/10 09:44:13;;;;;;;4.38;2.38;;;;;;;11.63;68.62;101132.19;7399649;19;20032;-68
2022/10/10 09:46:44;;;;;;;5.60;2.50;;;;;;;11.66;68.07;101124.22;7398250;19;20365;-68
2022/10/10 09:49:17;;;;;;;5.03;3.00;;;;;;;11.72;68.10;101121.47;7399485;19;20035;-68
2022/10/10 09:51:46;;;;;;;6.38;3.67;;;;;;;11.77;68.09;101119.59;7396599;19;20089;-68
2022/10/10 09:54:17;;;;;;;3.75;2.00;;;;;;;11.80;67.99;101111.66;7396442;19;20014;-68
2022/10/10 09:57:07;;;;;;;6.80;2.42;;;;;;;11.88;67.99;101109.72;7398285;19;20019;-68
2022/10/10 09:59:48;;;;;;;5.75;2.55;;;;;;;11.96;67.80;101101.72;7396446;19;20028;-69
2022/10/10 10:02:22;;;;;;;4.68;2.28;;;;;;;12.03;67.77;101108.56;7399180;19;20070;-67
2022/10/10 10:04:52;;;;;;;13.43;4.18;;;;;;;12.12;67.42;101109.25;7397763;19;20481;-68
2022/10/10 10:07:28;;;;;;;26.08;6.60;;;;;;;12.18;67.13;101106.50;7397693;19;20035;-71
2022/10/10 10:09:59;;;;;;;14.75;8.40;;;;;;;12.24;66.93;101101.09;7396622;19;20014;-69
2022/10/10 10:12:32;;;;;;;6.72;3.22;;;;;;;12.30;66.71;101100.09;7396434;19;20418;-71
2022/10/10 10:15:03;;;;;;;7.88;2.85;;;;;;;12.38;65.98;101099.03;7395968;19;20115;-70
2022/10/10 10:17:35;;;;;;;8.77;2.28;;;;;;;12.46;64.99;101090.06;7397449;19;20022;-68
2022/10/10 10:20:03;;;;;;;4.28;2.08;;;;;;;12.55;65.06;101100.38;7397122;19;20027;-69
2022/10/10 10:22:36;;;;;;;4.72;2.33;;;;;;;12.62;64.66;101086.16;7397249;19;20074;-70
2022/10/10 10:25:34;;;;;;;3.83;2.25;;;;;;;12.72;63.89;101092.06;7397105;19;20070;-68
2022/10/10 10:28:17;;;;;;;6.20;2.78;;;;;;;12.81;63.78;101093.59;7396211;19;20087;-70
2022/10/10 10:30:47;;;;;;;5.43;2.40;;;;;;;12.90;64.26;101088.06;7397991;19;20041;-68
2022/10/10 10:33:29;;;;;;;8.75;2.10;;;;;;;12.98;63.35;101091.41;7395618;19;20028;-70
2022/10/10 10:36:07;;;;;;;4.90;2.30;;;;;;;13.06;63.52;101085.91;7397824;19;20039;-67
2022/10/10 10:38:44;;;;;;;6.07;2.80;;;;;;;13.13;63.54;101076.94;7395349;19;20082;-68
2022/10/10 10:41:22;;;;;;;5.43;2.47;;;;;;;13.20;63.46;101078.53;7397936;19;20027;-68
2022/10/10 10:44:06;;;;;;;6.43;2.80;;;;;;;13.29;63.37;101081.78;7397462;19;20015;-67
2022/10/10 10:46:48;;;;;;;6.35;2.35;;;;;;;13.38;62.25;101081.56;7396029;19;20085;-69
2022/10/10 10:49:24;;;;;;;5.70;2.08;;;;;;;13.45;62.17;101077.84;7397567;19;20074;-68
2022/10/10 10:52:17;;;;;;;5.78;2.65;;;;;;;13.52;61.69;101079.41;7397669;19;20078;-68
2022/10/10 10:55:03;;;;;;;4.18;3.10;;;;;;;13.58;61.50;101077.50;7395173;19;20481;-68
2022/10/10 10:57:42;;;;;;;6.28;2.33;;;;;;;13.66;61.70;101078.13;7395971;19;20074;-70
2022/10/10 11:00:19;;;;;;;5.38;2.40;;;;;;;13.73;61.99;101071.78;7395727;19;20015;-69
2022/10/10 11:03:03;;;;;;;5.85;2.70;;;;;;;13.81;61.15;101064.53;7397492;19;20026;-68
2022/10/10 11:05:42;;;;;;;6.22;2.60;;;;;;;13.89;60.43;101066.03;7394768;19;20376;-68
2022/10/10 11:08:39;;;;;;;8.80;3.20;;;;;;;13.93;59.88;101051.88;7395368;19;20164;-66
2022/10/10 11:11:30;;;;;;;9.02;2.65;;;;;;;13.98;60.22;101060.50;7394306;19;20022;-67
2022/10/10 11:14:08;;;;;;;7.30;3.63;;;;;;;14.02;60.64;101057.69;7395704;19;20011;-70
2022/10/10 11:16:44;;;;;;;5.22;2.17;;;;;;;14.05;60.41;101062.00;7393157;19;20032;-68
2022/10/10 11:19:22;;;;;;;6.75;2.70;;;;;;;14.08;60.05;101054.03;7393665;19;20373;-64
2022/10/10 11:22:00;;;;;;;8.82;2.80;;;;;;;14.12;59.79;101054.78;7393411;19;20018;-66
2022/10/10 11:24:43;;;;;;;4.93;2.42;;;;;;;14.14;60.13;101059.09;7393025;19;20505;-68
2022/10/10 11:27:19;;;;;;;7.77;2.70;;;;;;;14.20;60.55;101051.91;7393687;19;20025;-67
2022/10/10 11:30:05;;;;;;;5.57;2.40;;;;;;;14.25;60.37;101053.47;7393610;19;20025;-64
2022/10/10 11:32:39;;;;;;;9.02;3.10;;;;;;;14.25;60.63;101037.63;7394886;19;20365;-66
2022/10/10 11:35:17;;;;;;;;;;;;;;;14.36;59.86;101036.44;7395765;19;20015;-66
2022/10/10 11:37:54;;;;;;;4.95;2.75;;;;;;;14.41;60.56;101038.00;7394482;19;19930;-68
2022/10/10 11:40:38;;;;;;;5.60;2.75;;;;;;;14.47;60.31;101048.38;7394417;19;20033;-65
2022/10/10 11:43:14;;;;;;;5.72;2.67;;;;;;;14.50;60.43;101039.47;7393938;19;20007;-67
2022/10/10 11:45:47;;;;;;;4.75;2.78;;;;;;;14.57;60.22;101048.03;7392776;19;20448;-64
2022/10/10 11:48:24;;;;;;;6.47;2.90;;;;;;;14.60;60.09;101046.16;7393580;19;20090;-67
2022/10/10 11:50:58;;;;;;;6.55;2.70;;;;;;;14.66;60.16;101042.50;7393099;19;20485;-66
2022/10/10 11:53:35;;;;;;;4.80;2.60;;;;;;;14.72;60.24;101039.66;7393938;19;20014;-66